sensor_id;sensor_type;location;lat;lon;timestamp;pressure;altitude;pressure_sealevel;temperature;humidity
32456;BME280;18912;43.270;27.942;2023-01-30T00:01:39;98494.16;;;4.54;58.63
32456;BME280;18912;43.270;27.942;2023-01-30T00:04:05;98498.69;;;4.61;58.58
32456;BME280;18912;43.270;27.942;2023-01-30T00:06:30;98503.03;;;4.62;58.50
32456;BME280;18912;43.270;27.942;2023-01-30T00:08:56;98504.88;;;4.62;58.48
32456;BME280;18912;43.270;27.942;2023-01-30T00:11:21;98498.16;;;4.58;58.70
32456;BME280;18912;43.270;27.942;2023-01-30T00:13:48;98503.03;;;4.62;58.73
32456;BME280;18912;43.270;27.942;2023-01-30T00:16:15;98500.56;;;4.69;58.42
32456;BME280;18912;43.270;27.942;2023-01-30T00:18:41;98501.88;;;4.65;58.50
32456;BME280;18912;43.270;27.942;2023-01-30T00:21:09;98505.03;;;4.60;58.70
32456;BME280;18912;43.270;27.942;2023-01-30T00:23:36;98503.19;;;4.61;59.04
32456;BME280;18912;43.270;27.942;2023-01-30T00:26:03;98494.78;;;4.56;59.19
32456;BME280;18912;43.270;27.942;2023-01-30T00:28:28;98498.47;;;4.55;59.33
32456;BME280;18912;43.270;27.942;2023-01-30T00:30:54;98486.75;;;4.56;59.35
32456;BME280;18912;43.270;27.942;2023-01-30T00:33:22;98496.16;;;4.60;58.97
32456;BME280;18912;43.270;27.942;2023-01-30T00:35:49;98487.00;;;4.70;58.61
32456;BME280;18912;43.270;27.942;2023-01-30T00:38:15;98491.53;;;4.70;58.56
32456;BME280;18912;43.270;27.942;2023-01-30T00:40:41;98491.84;;;4.67;58.48
32456;BME280;18912;43.270;27.942;2023-01-30T00:43:10;98490.66;;;4.69;58.37
32456;BME280;18912;43.270;27.942;2023-01-30T00:45:55;98480.63;;;4.71;58.20
32456;BME280;18912;43.270;27.942;2023-01-30T00:48:39;98482.97;;;4.66;58.56
32456;BME280;18912;43.270;27.942;2023-01-30T00:51:05;98478.38;;;4.51;58.93
32456;BME280;18912;43.270;27.942;2023-01-30T00:53:30;98474.03;;;4.50;59.30
32456;BME280;18912;43.270;27.942;2023-01-30T00:55:56;98477.53;;;4.42;59.29
32456;BME280;18912;43.270;27.942;2023-01-30T00:58:22;98475.03;;;4.49;59.24
32456;BME280;18912;43.270;27.942;2023-01-30T01:00:48;98472.84;;;4.52;59.24
32456;BME280;18912;43.270;27.942;2023-01-30T01:03:14;98479.69;;;4.47;59.28
32456;BME280;18912;43.270;27.942;2023-01-30T01:05:40;98469.84;;;4.47;59.38
32456;BME280;18912;43.270;27.942;2023-01-30T01:08:06;98472.03;;;4.52;59.18
32456;BME280;18912;43.270;27.942;2023-01-30T01:10:31;98466.69;;;4.52;59.22
32456;BME280;18912;43.270;27.942;2023-01-30T01:12:57;98460.66;;;4.50;59.31
32456;BME280;18912;43.270;27.942;2023-01-30T01:15:23;98463.97;;;4.44;59.42
32456;BME280;18912;43.270;27.942;2023-01-30T01:17:50;98453.69;;;4.31;59.77
32456;BME280;18912;43.270;27.942;2023-01-30T01:20:17;98456.75;;;4.36;59.79
32456;BME280;18912;43.270;27.942;2023-01-30T01:22:43;98457.88;;;4.34;59.83
32456;BME280;18912;43.270;27.942;2023-01-30T01:25:09;98458.81;;;4.17;59.99
32456;BME280;18912;43.270;27.942;2023-01-30T01:27:35;98460.75;;;4.07;59.65
32456;BME280;18912;43.270;27.942;2023-01-30T01:30:00;98454.56;;;4.06;59.65
32456;BME280;18912;43.270;27.942;2023-01-30T01:32:26;98465.53;;;4.21;59.54
32456;BME280;18912;43.270;27.942;2023-01-30T01:34:51;98466.09;;;4.32;59.27
32456;BME280;18912;43.270;27.942;2023-01-30T01:37:17;98469.59;;;4.33;59.27
32456;BME280;18912;43.270;27.942;2023-01-30T01:39:42;98461.59;;;4.33;59.17
32456;BME280;18912;43.270;27.942;2023-01-30T01:42:29;98456.91;;;4.35;59.11
32456;BME280;18912;43.270;27.942;2023-01-30T01:47:41;98457.25;;;4.40;59.06
32456;BME280;18912;43.270;27.942;2023-01-30T01:50:45;98454.25;;;4.43;59.17
32456;BME280;18912;43.270;27.942;2023-01-30T01:53:15;98454.56;;;4.40;59.34
32456;BME280;18912;43.270;27.942;2023-01-30T01:55:44;98449.91;;;4.42;59.48
32456;BME280;18912;43.270;27.942;2023-01-30T01:58:19;98452.41;;;4.43;59.11
32456;BME280;18912;43.270;27.942;2023-01-30T02:00:47;98442.34;;;4.37;59.25
32456;BME280;18912;43.270;27.942;2023-01-30T02:03:20;98450.59;;;4.44;58.72
32456;BME280;18912;43.270;27.942;2023-01-30T02:05:50;98446.91;;;4.45;58.61
32456;BME280;18912;43.270;27.942;2023-01-30T02:08:21;98450.22;;;4.39;58.86
32456;BME280;18912;43.270;27.942;2023-01-30T02:13:30;98460.91;;;4.39;59.24
32456;BME280;18912;43.270;27.942;2023-01-30T02:16:00;98455.94;;;4.44;59.23
32456;BME280;18912;43.270;27.942;2023-01-30T02:18:27;98451.91;;;4.40;59.51
32456;BME280;18912;43.270;27.942;2023-01-30T02:31:41;98445.91;;;4.46;59.86
32456;BME280;18912;43.270;27.942;2023-01-30T02:34:38;98446.72;;;4.46;59.75
32456;BME280;18912;43.270;27.942;2023-01-30T02:45:36;98440.56;;;4.46;60.04
32456;BME280;18912;43.270;27.942;2023-01-30T02:48:10;98445.91;;;4.46;60.16
32456;BME280;18912;43.270;27.942;2023-01-30T02:50:56;98443.91;;;4.48;60.23
32456;BME280;18912;43.270;27.942;2023-01-30T02:53:23;98445.22;;;4.44;60.52
32456;BME280;18912;43.270;27.942;2023-01-30T02:55:48;98434.56;;;4.52;60.16
32456;BME280;18912;43.270;27.942;2023-01-30T02:58:15;98437.84;;;4.38;60.73
32456;BME280;18912;43.270;27.942;2023-01-30T03:00:53;98434.81;;;4.33;60.83
32456;BME280;18912;43.270;27.942;2023-01-30T03:03:57;98432.59;;;4.28;61.21
32456;BME280;18912;43.270;27.942;2023-01-30T03:14:33;98433.97;;;4.32;61.43
32456;BME280;18912;43.270;27.942;2023-01-30T03:17:05;98435.44;;;4.27;61.72
32456;BME280;18912;43.270;27.942;2023-01-30T03:19:32;98436.59;;;4.24;61.75
32456;BME280;18912;43.270;27.942;2023-01-30T03:21:57;98423.34;;;4.15;61.92
32456;BME280;18912;43.270;27.942;2023-01-30T03:24:23;98437.88;;;4.12;62.15
32456;BME280;18912;43.270;27.942;2023-01-30T03:26:53;98433.88;;;4.16;62.47
32456;BME280;18912;43.270;27.942;2023-01-30T03:29:21;98432.72;;;4.19;62.30
32456;BME280;18912;43.270;27.942;2023-01-30T03:31:46;98429.72;;;4.22;62.41
32456;BME280;18912;43.270;27.942;2023-01-30T03:34:12;98432.25;;;4.23;62.59
32456;BME280;18912;43.270;27.942;2023-01-30T03:36:37;98419.63;;;4.08;63.07
32456;BME280;18912;43.270;27.942;2023-01-30T03:39:03;98431.81;;;4.02;63.01
32456;BME280;18912;43.270;27.942;2023-01-30T03:41:29;98430.63;;;4.05;63.34
32456;BME280;18912;43.270;27.942;2023-01-30T03:43:54;98423.28;;;4.07;63.39
32456;BME280;18912;43.270;27.942;2023-01-30T03:46:20;98420.47;;;4.08;63.34
32456;BME280;18912;43.270;27.942;2023-01-30T03:48:45;98419.63;;;4.08;63.65
32456;BME280;18912;43.270;27.942;2023-01-30T03:51:10;98419.31;;;4.11;63.77
32456;BME280;18912;43.270;27.942;2023-01-30T03:53:36;98424.81;;;4.09;63.93
32456;BME280;18912;43.270;27.942;2023-01-30T03:56:01;98420.31;;;4.10;63.89
32456;BME280;18912;43.270;27.942;2023-01-30T03:58:29;98417.75;;;4.00;64.36
32456;BME280;18912;43.270;27.942;2023-01-30T04:00:55;98419.22;;;3.95;64.54
32456;BME280;18912;43.270;27.942;2023-01-30T04:03:24;98405.84;;;3.95;64.60
32456;BME280;18912;43.270;27.942;2023-01-30T04:05:50;98416.75;;;4.01;64.67
32456;BME280;18912;43.270;27.942;2023-01-30T04:08:15;98416.91;;;4.00;64.65
32456;BME280;18912;43.270;27.942;2023-01-30T04:10:41;98414.59;;;4.05;64.74
32456;BME280;18912;43.270;27.942;2023-01-30T04:13:06;98414.13;;;4.09;64.67
32456;BME280;18912;43.270;27.942;2023-01-30T04:15:32;98408.97;;;4.16;64.66
32456;BME280;18912;43.270;27.942;2023-01-30T04:17:57;98410.94;;;4.06;64.94
32456;BME280;18912;43.270;27.942;2023-01-30T04:20:23;98412.59;;;4.07;64.85
32456;BME280;18912;43.270;27.942;2023-01-30T04:22:49;98416.97;;;4.08;64.98
32456;BME280;18912;43.270;27.942;2023-01-30T04:25:14;98417.00;;;4.16;64.89
32456;BME280;18912;43.270;27.942;2023-01-30T04:27:40;98411.97;;;4.13;64.81
32456;BME280;18912;43.270;27.942;2023-01-30T04:30:06;98414.28;;;4.08;65.02
32456;BME280;18912;43.270;27.942;2023-01-30T04:32:31;98408.41;;;4.04;65.42
32456;BME280;18912;43.270;27.942;2023-01-30T04:34:57;98414.41;;;3.98;65.67
32456;BME280;18912;43.270;27.942;2023-01-30T04:37:22;98417.25;;;3.97;66.01
32456;BME280;18912;43.270;27.942;2023-01-30T04:39:48;98420.72;;;3.97;66.03
32456;BME280;18912;43.270;27.942;2023-01-30T04:42:13;98414.00;;;3.85;66.37
32456;BME280;18912;43.270;27.942;2023-01-30T04:44:39;98419.19;;;3.87;66.46
32456;BME280;18912;43.270;27.942;2023-01-30T04:47:04;98425.84;;;3.83;66.61
32456;BME280;18912;43.270;27.942;2023-01-30T04:49:30;98415.75;;;3.76;66.77
32456;BME280;18912;43.270;27.942;2023-01-30T04:51:55;98416.94;;;3.74;67.00
32456;BME280;18912;43.270;27.942;2023-01-30T04:54:21;98416.53;;;3.69;67.40
32456;BME280;18912;43.270;27.942;2023-01-30T04:56:46;98414.72;;;3.69;67.27
32456;BME280;18912;43.270;27.942;2023-01-30T04:59:11;98412.47;;;3.57;67.61
32456;BME280;18912;43.270;27.942;2023-01-30T05:01:37;98413.00;;;3.60;67.82
32456;BME280;18912;43.270;27.942;2023-01-30T05:04:05;98407.38;;;3.71;67.54
32456;BME280;18912;43.270;27.942;2023-01-30T05:06:32;98407.56;;;3.78;67.19
32456;BME280;18912;43.270;27.942;2023-01-30T05:08:58;98403.00;;;3.70;67.27
32456;BME280;18912;43.270;27.942;2023-01-30T05:11:25;98410.13;;;3.79;67.59
32456;BME280;18912;43.270;27.942;2023-01-30T05:13:51;98402.72;;;3.73;67.55
32456;BME280;18912;43.270;27.942;2023-01-30T05:16:18;98404.88;;;3.70;67.63
32456;BME280;18912;43.270;27.942;2023-01-30T05:18:44;98406.31;;;3.90;66.97
32456;BME280;18912;43.270;27.942;2023-01-30T05:21:17;98411.44;;;3.75;67.55
32456;BME280;18912;43.270;27.942;2023-01-30T05:23:44;98413.88;;;3.69;67.69
32456;BME280;18912;43.270;27.942;2023-01-30T05:26:11;98407.38;;;3.71;67.88
32456;BME280;18912;43.270;27.942;2023-01-30T05:28:36;98404.09;;;3.77;67.77
32456;BME280;18912;43.270;27.942;2023-01-30T05:31:08;98407.13;;;3.83;67.52
32456;BME280;18912;43.270;27.942;2023-01-30T05:33:34;98410.13;;;3.79;67.55
32456;BME280;18912;43.270;27.942;2023-01-30T05:36:00;98400.56;;;3.77;67.82
32456;BME280;18912;43.270;27.942;2023-01-30T05:38:26;98404.38;;;3.74;68.02
32456;BME280;18912;43.270;27.942;2023-01-30T05:41:06;98412.72;;;3.71;67.95
32456;BME280;18912;43.270;27.942;2023-01-30T05:43:32;98405.69;;;3.70;68.24
32456;BME280;18912;43.270;27.942;2023-01-30T05:46:01;98409.78;;;3.83;67.79
32456;BME280;18912;43.270;27.942;2023-01-30T05:48:31;98412.81;;;3.88;67.40
32456;BME280;18912;43.270;27.942;2023-01-30T05:50:59;98417.50;;;3.86;67.70
32456;BME280;18912;43.270;27.942;2023-01-30T05:53:30;98421.22;;;3.67;67.99
32456;BME280;18912;43.270;27.942;2023-01-30T05:56:04;98419.66;;;3.56;68.03
32456;BME280;18912;43.270;27.942;2023-01-30T05:58:30;98415.88;;;3.67;68.12
32456;BME280;18912;43.270;27.942;2023-01-30T06:01:19;98417.84;;;3.65;68.28
32456;BME280;18912;43.270;27.942;2023-01-30T06:03:44;98413.00;;;3.60;68.57
32456;BME280;18912;43.270;27.942;2023-01-30T06:06:11;98414.09;;;3.75;68.15
32456;BME280;18912;43.270;27.942;2023-01-30T06:08:37;98414.44;;;3.80;68.08
32456;BME280;18912;43.270;27.942;2023-01-30T06:11:05;98414.72;;;3.69;67.98
32456;BME280;18912;43.270;27.942;2023-01-30T06:13:32;98404.44;;;3.57;68.36
32456;BME280;18912;43.270;27.942;2023-01-30T06:15:58;98411.59;;;3.74;67.82
32456;BME280;18912;43.270;27.942;2023-01-30T06:18:23;98412.50;;;3.65;68.06
32456;BME280;18912;43.270;27.942;2023-01-30T06:20:50;98412.09;;;3.52;68.42
32456;BME280;18912;43.270;27.942;2023-01-30T06:23:16;98408.88;;;3.48;68.28
32456;BME280;18912;43.270;27.942;2023-01-30T06:25:43;98404.28;;;3.58;68.07
32456;BME280;18912;43.270;27.942;2023-01-30T06:28:09;98406.88;;;3.68;67.58
32456;BME280;18912;43.270;27.942;2023-01-30T06:30:34;98401.03;;;3.72;67.44
32456;BME280;18912;43.270;27.942;2023-01-30T06:32:59;98403.59;;;3.82;67.63
32456;BME280;18912;43.270;27.942;2023-01-30T06:35:25;98401.72;;;3.74;67.98
32456;BME280;18912;43.270;27.942;2023-01-30T06:37:50;98405.47;;;3.90;67.46
32456;BME280;18912;43.270;27.942;2023-01-30T06:40:16;98408.13;;;3.82;67.88
32456;BME280;18912;43.270;27.942;2023-01-30T06:42:45;98412.69;;;3.97;67.67
32456;BME280;18912;43.270;27.942;2023-01-30T06:45:15;98410.19;;;3.96;67.64
32456;BME280;18912;43.270;27.942;2023-01-30T06:47:49;98402.22;;;4.04;67.80
32456;BME280;18912;43.270;27.942;2023-01-30T06:50:17;98403.94;;;4.13;67.45
32456;BME280;18912;43.270;27.942;2023-01-30T06:52:44;98393.09;;;4.22;67.20
32456;BME280;18912;43.270;27.942;2023-01-30T06:55:12;98399.31;;;4.23;67.00
32456;BME280;18912;43.270;27.942;2023-01-30T06:57:39;98392.88;;;4.08;67.03
32456;BME280;18912;43.270;27.942;2023-01-30T07:00:06;98386.56;;;4.17;66.60
32456;BME280;18912;43.270;27.942;2023-01-30T07:02:32;98395.06;;;4.12;66.91
32456;BME280;18912;43.270;27.942;2023-01-30T07:05:05;98387.44;;;4.25;66.72
32456;BME280;18912;43.270;27.942;2023-01-30T07:07:32;98390.59;;;4.21;66.16
32456;BME280;18912;43.270;27.942;2023-01-30T07:09:58;98391.16;;;4.32;66.17
32456;BME280;18912;43.270;27.942;2023-01-30T07:12:24;98392.38;;;4.46;65.80
32456;BME280;18912;43.270;27.942;2023-01-30T07:14:50;98385.69;;;4.50;65.38
32456;BME280;18912;43.270;27.942;2023-01-30T07:17:15;98383.13;;;4.32;65.26
32456;BME280;18912;43.270;27.942;2023-01-30T07:19:42;98381.91;;;4.19;65.35
32456;BME280;18912;43.270;27.942;2023-01-30T07:22:07;98391.56;;;4.12;65.70
32456;BME280;18912;43.270;27.942;2023-01-30T07:24:33;98386.28;;;4.28;65.29
32456;BME280;18912;43.270;27.942;2023-01-30T07:26:58;98387.25;;;4.19;65.52
32456;BME280;18912;43.270;27.942;2023-01-30T07:29:24;98391.72;;;4.10;65.64
32456;BME280;18912;43.270;27.942;2023-01-30T07:31:50;98381.28;;;4.33;65.56
32456;BME280;18912;43.270;27.942;2023-01-30T07:34:15;98390.00;;;4.35;65.65
32456;BME280;18912;43.270;27.942;2023-01-30T07:36:41;98377.28;;;4.37;65.61
32456;BME280;18912;43.270;27.942;2023-01-30T07:39:06;98385.03;;;4.48;65.13
32456;BME280;18912;43.270;27.942;2023-01-30T07:41:34;98380.56;;;4.23;65.77
32456;BME280;18912;43.270;27.942;2023-01-30T07:43:59;98373.94;;;4.43;65.67
32456;BME280;18912;43.270;27.942;2023-01-30T07:46:24;98377.69;;;4.66;65.04
32456;BME280;18912;43.270;27.942;2023-01-30T07:48:50;98380.97;;;4.36;65.39
32456;BME280;18912;43.270;27.942;2023-01-30T07:51:15;98380.56;;;4.23;65.73
32456;BME280;18912;43.270;27.942;2023-01-30T07:53:41;98382.94;;;4.34;65.97
32456;BME280;18912;43.270;27.942;2023-01-30T07:56:07;98382.38;;;4.64;65.18
32456;BME280;18912;43.270;27.942;2023-01-30T07:58:33;98376.34;;;4.62;64.95
32456;BME280;18912;43.270;27.942;2023-01-30T08:00:58;98379.06;;;4.78;64.77
32456;BME280;18912;43.270;27.942;2023-01-30T08:03:24;98378.34;;;4.52;64.92
32456;BME280;18912;43.270;27.942;2023-01-30T08:05:49;98377.53;;;4.67;64.59
32456;BME280;18912;43.270;27.942;2023-01-30T08:08:15;98375.72;;;4.76;64.51
32456;BME280;18912;43.270;27.942;2023-01-30T08:10:41;98380.09;;;4.93;63.68
32456;BME280;18912;43.270;27.942;2023-01-30T08:13:06;98369.19;;;4.87;63.51
32456;BME280;18912;43.270;27.942;2023-01-30T08:15:32;98360.81;;;4.82;63.66
32456;BME280;18912;43.270;27.942;2023-01-30T08:17:58;98362.53;;;5.15;63.39
32456;BME280;18912;43.270;27.942;2023-01-30T08:20:25;98364.84;;;5.42;62.67
32456;BME280;18912;43.270;27.942;2023-01-30T08:22:52;98361.34;;;5.41;62.52
32456;BME280;18912;43.270;27.942;2023-01-30T08:25:18;98367.38;;;5.43;62.95
32456;BME280;18912;43.270;27.942;2023-01-30T08:27:44;98358.00;;;5.31;62.80
32456;BME280;18912;43.270;27.942;2023-01-30T08:30:10;98348.28;;;5.54;62.23
32456;BME280;18912;43.270;27.942;2023-01-30T08:32:36;98350.91;;;5.62;62.56
32456;BME280;18912;43.270;27.942;2023-01-30T08:35:01;98349.94;;;5.47;62.34
32456;BME280;18912;43.270;27.942;2023-01-30T08:37:27;98340.91;;;5.56;62.33
32456;BME280;18912;43.270;27.942;2023-01-30T08:39:52;98337.38;;;5.64;61.73
32456;BME280;18912;43.270;27.942;2023-01-30T08:42:18;98340.75;;;5.18;62.68
32456;BME280;18912;43.270;27.942;2023-01-30T08:44:43;98341.75;;;5.33;62.12
32456;BME280;18912;43.270;27.942;2023-01-30T08:47:09;98344.88;;;5.68;62.17
32456;BME280;18912;43.270;27.942;2023-01-30T08:49:34;98328.78;;;5.77;61.81
32456;BME280;18912;43.270;27.942;2023-01-30T08:51:59;98320.94;;;5.51;61.89
32456;BME280;18912;43.270;27.942;2023-01-30T08:54:25;98324.25;;;5.77;61.22
32456;BME280;18912;43.270;27.942;2023-01-30T08:56:51;98328.19;;;5.26;62.15
32456;BME280;18912;43.270;27.942;2023-01-30T08:59:17;98313.72;;;5.59;61.97
32456;BME280;18912;43.270;27.942;2023-01-30T09:01:42;98310.31;;;5.82;61.32
32456;BME280;18912;43.270;27.942;2023-01-30T09:04:08;98308.81;;;5.79;60.79
32456;BME280;18912;43.270;27.942;2023-01-30T09:06:33;98307.16;;;5.70;61.46
32456;BME280;18912;43.270;27.942;2023-01-30T09:08:59;98311.72;;;6.16;60.62
32456;BME280;18912;43.270;27.942;2023-01-30T09:11:24;98302.31;;;5.74;59.69
32456;BME280;18912;43.270;27.942;2023-01-30T09:13:50;98300.31;;;5.67;60.13
32456;BME280;18912;43.270;27.942;2023-01-30T09:16:15;98295.31;;;6.11;59.25
32456;BME280;18912;43.270;27.942;2023-01-30T09:18:42;98290.44;;;7.13;58.05
32456;BME280;18912;43.270;27.942;2023-01-30T09:21:09;98280.31;;;7.82;56.09
32456;BME280;18912;43.270;27.942;2023-01-30T09:23:35;98283.50;;;8.50;55.20
32456;BME280;18912;43.270;27.942;2023-01-30T09:26:01;98275.56;;;9.26;54.09
32456;BME280;18912;43.270;27.942;2023-01-30T09:28:28;98275.25;;;8.94;52.48
32456;BME280;18912;43.270;27.942;2023-01-30T09:30:57;98277.88;;;9.08;52.65
32456;BME280;18912;43.270;27.942;2023-01-30T09:33:23;98269.09;;;9.83;51.21
32456;BME280;18912;43.270;27.942;2023-01-30T09:35:49;98270.75;;;10.65;48.92
32456;BME280;18912;43.270;27.942;2023-01-30T09:38:15;98267.94;;;10.39;48.21
32456;BME280;18912;43.270;27.942;2023-01-30T09:41:12;98245.41;;;11.71;48.20
32456;BME280;18912;43.270;27.942;2023-01-30T09:46:31;98242.03;;;10.58;48.33
32456;BME280;18912;43.270;27.942;2023-01-30T09:51:57;98238.06;;;8.89;51.21
32456;BME280;18912;43.270;27.942;2023-01-30T09:54:33;98240.31;;;8.65;52.49
32456;BME280;18912;43.270;27.942;2023-01-30T09:57:10;98237.69;;;9.13;52.44
32456;BME280;18912;43.270;27.942;2023-01-30T10:02:35;98217.28;;;9.32;51.21
32456;BME280;18912;43.270;27.942;2023-01-30T10:05:07;98211.66;;;10.02;49.88
32456;BME280;18912;43.270;27.942;2023-01-30T10:07:39;98206.84;;;9.91;49.01
32456;BME280;18912;43.270;27.942;2023-01-30T10:13:31;98196.28;;;11.54;46.00
32456;BME280;18912;43.270;27.942;2023-01-30T10:19:18;98198.06;;;10.23;48.48
32456;BME280;18912;43.270;27.942;2023-01-30T10:22:03;98186.19;;;9.77;49.71
32456;BME280;18912;43.270;27.942;2023-01-30T10:24:42;98196.28;;;9.55;49.76
32456;BME280;18912;43.270;27.942;2023-01-30T10:27:15;98183.38;;;10.52;48.46
32456;BME280;18912;43.270;27.942;2023-01-30T10:29:48;98174.88;;;10.61;48.28
32456;BME280;18912;43.270;27.942;2023-01-30T10:33:01;98164.69;;;9.96;49.38
32456;BME280;18912;43.270;27.942;2023-01-30T10:35:22;98163.88;;;8.93;50.03
32456;BME280;18912;43.270;27.942;2023-01-30T10:37:58;98165.00;;;9.74;51.11
32456;BME280;18912;43.270;27.942;2023-01-30T10:40:40;98167.81;;;9.18;50.21
32456;BME280;18912;43.270;27.942;2023-01-30T10:43:20;98155.97;;;8.64;51.35
32456;BME280;18912;43.270;27.942;2023-01-30T10:51:04;98149.16;;;9.23;51.55
32456;BME280;18912;43.270;27.942;2023-01-30T10:53:42;98141.31;;;9.63;51.06
32456;BME280;18912;43.270;27.942;2023-01-30T10:56:18;98124.59;;;9.12;49.56
32456;BME280;18912;43.270;27.942;2023-01-30T11:04:02;98121.78;;;8.92;50.11
32456;BME280;18912;43.270;27.942;2023-01-30T11:06:29;98116.34;;;9.20;49.24
32456;BME280;18912;43.270;27.942;2023-01-30T11:08:56;98113.22;;;9.51;48.34
32456;BME280;18912;43.270;27.942;2023-01-30T11:11:52;98110.72;;;9.56;47.85
32456;BME280;18912;43.270;27.942;2023-01-30T11:14:19;98107.88;;;8.89;48.74
32456;BME280;18912;43.270;27.942;2023-01-30T11:19:12;98083.75;;;7.90;50.81
32456;BME280;18912;43.270;27.942;2023-01-30T11:21:39;98080.16;;;8.46;51.10
32456;BME280;18912;43.270;27.942;2023-01-30T11:24:43;98079.03;;;9.64;50.29
32456;BME280;18912;43.270;27.942;2023-01-30T11:27:24;98065.69;;;10.23;48.43
32456;BME280;18912;43.270;27.942;2023-01-30T11:30:19;98065.28;;;10.65;46.94
32456;BME280;18912;43.270;27.942;2023-01-30T11:32:47;98057.78;;;10.28;47.60
32456;BME280;18912;43.270;27.942;2023-01-30T11:37:41;98059.84;;;8.71;51.59
32456;BME280;18912;43.270;27.942;2023-01-30T11:40:27;98060.19;;;8.13;53.66
32456;BME280;18912;43.270;27.942;2023-01-30T11:43:05;98053.13;;;8.33;53.88
32456;BME280;18912;43.270;27.942;2023-01-30T11:45:37;98059.03;;;8.43;54.24
32456;BME280;18912;43.270;27.942;2023-01-30T11:48:10;98054.63;;;8.00;54.86
32456;BME280;18912;43.270;27.942;2023-01-30T11:50:42;98042.59;;;7.75;54.69
32456;BME280;18912;43.270;27.942;2023-01-30T11:53:38;98044.84;;;7.92;55.21
32456;BME280;18912;43.270;27.942;2023-01-30T11:58:36;98029.25;;;7.45;56.43
32456;BME280;18912;43.270;27.942;2023-01-30T12:01:02;98028.75;;;7.78;57.01
32456;BME280;18912;43.270;27.942;2023-01-30T12:03:30;98010.94;;;7.55;56.62
32456;BME280;18912;43.270;27.942;2023-01-30T12:05:58;98023.25;;;7.65;56.75
32456;BME280;18912;43.270;27.942;2023-01-30T12:08:28;98018.31;;;8.31;54.80
32456;BME280;18912;43.270;27.942;2023-01-30T12:10:58;98007.63;;;7.96;53.66
32456;BME280;18912;43.270;27.942;2023-01-30T12:13:41;98004.41;;;8.07;53.57
32456;BME280;18912;43.270;27.942;2023-01-30T12:24:39;97998.16;;;7.57;54.55
32456;BME280;18912;43.270;27.942;2023-01-30T12:30:23;97988.19;;;7.58;54.97
32456;BME280;18912;43.270;27.942;2023-01-30T12:32:55;97985.69;;;7.56;55.01
32456;BME280;18912;43.270;27.942;2023-01-30T12:35:30;97987.84;;;7.46;54.03
32456;BME280;18912;43.270;27.942;2023-01-30T12:43:38;97974.38;;;7.40;54.50
32456;BME280;18912;43.270;27.942;2023-01-30T12:52:12;97961.69;;;7.34;52.94
32456;BME280;18912;43.270;27.942;2023-01-30T12:57:43;97955.75;;;7.38;53.04
32456;BME280;18912;43.270;27.942;2023-01-30T13:14:26;97949.09;;;6.99;54.94
32456;BME280;18912;43.270;27.942;2023-01-30T13:27:50;97951.16;;;6.68;59.50
32456;BME280;18912;43.270;27.942;2023-01-30T13:30:17;97946.44;;;6.40;60.12
32456;BME280;18912;43.270;27.942;2023-01-30T13:32:46;97939.41;;;6.25;60.52
32456;BME280;18912;43.270;27.942;2023-01-30T13:35:23;97938.53;;;5.95;61.87
32456;BME280;18912;43.270;27.942;2023-01-30T13:37:50;97944.28;;;5.92;62.58
32456;BME280;18912;43.270;27.942;2023-01-30T13:40:22;97940.13;;;5.44;64.27
32456;BME280;18912;43.270;27.942;2023-01-30T13:45:21;97933.31;;;5.34;65.68
32456;BME280;18912;43.270;27.942;2023-01-30T13:47:54;97932.69;;;5.32;66.22
32456;BME280;18912;43.270;27.942;2023-01-30T13:55:57;97921.66;;;5.27;64.17
32456;BME280;18912;43.270;27.942;2023-01-30T14:01:23;97908.53;;;5.09;63.48
32456;BME280;18912;43.270;27.942;2023-01-30T14:03:55;97912.63;;;5.05;63.63
32456;BME280;18912;43.270;27.942;2023-01-30T14:06:40;97910.53;;;4.85;61.61
32456;BME280;18912;43.270;27.942;2023-01-30T14:09:19;97900.25;;;4.96;61.45
32456;BME280;18912;43.270;27.942;2023-01-30T14:11:48;97897.56;;;5.41;60.03
32456;BME280;18912;43.270;27.942;2023-01-30T14:14:33;97898.06;;;5.45;59.89
32456;BME280;18912;43.270;27.942;2023-01-30T14:17:10;97901.38;;;5.69;59.03
32456;BME280;18912;43.270;27.942;2023-01-30T14:19:41;97892.34;;;5.85;59.23
32456;BME280;18912;43.270;27.942;2023-01-30T14:22:23;97898.22;;;5.43;59.92
32456;BME280;18912;43.270;27.942;2023-01-30T14:38:20;97889.03;;;5.60;59.88
32456;BME280;18912;43.270;27.942;2023-01-30T14:43:33;97876.56;;;5.30;63.93
32456;BME280;18912;43.270;27.942;2023-01-30T14:46:05;97881.78;;;5.32;64.09
32456;BME280;18912;43.270;27.942;2023-01-30T14:48:32;97874.47;;;5.40;64.22
32456;BME280;18912;43.270;27.942;2023-01-30T15:32:41;97865.75;;;4.48;68.19
32456;BME280;18912;43.270;27.942;2023-01-30T15:37:39;97874.25;;;4.51;67.78
32456;BME280;18912;43.270;27.942;2023-01-30T15:42:52;97872.22;;;4.23;68.79
32456;BME280;18912;43.270;27.942;2023-01-30T15:45:47;97865.00;;;4.62;68.00
32456;BME280;18912;43.270;27.942;2023-01-30T15:51:00;97872.06;;;4.55;67.09
32456;BME280;18912;43.270;27.942;2023-01-30T15:53:29;97872.22;;;4.23;67.36
32456;BME280;18912;43.270;27.942;2023-01-30T15:55:58;97866.38;;;4.19;68.21
32456;BME280;18912;43.270;27.942;2023-01-30T15:58:25;97873.47;;;4.04;68.49
32456;BME280;18912;43.270;27.942;2023-01-30T16:00:54;97872.84;;;4.33;67.81
32456;BME280;18912;43.270;27.942;2023-01-30T16:03:23;97858.50;;;4.56;67.39
32456;BME280;18912;43.270;27.942;2023-01-30T16:05:52;97865.31;;;4.67;67.23
32456;BME280;18912;43.270;27.942;2023-01-30T16:08:26;97860.91;;;4.74;66.75
32456;BME280;18912;43.270;27.942;2023-01-30T16:10:52;97869.50;;;4.31;68.07
32456;BME280;18912;43.270;27.942;2023-01-30T16:13:22;97865.34;;;4.28;69.26
32456;BME280;18912;43.270;27.942;2023-01-30T16:16:13;97856.00;;;4.55;69.05
32456;BME280;18912;43.270;27.942;2023-01-30T16:21:16;97854.56;;;4.06;69.02
32456;BME280;18912;43.270;27.942;2023-01-30T16:26:21;97868.50;;;3.93;70.02
32456;BME280;18912;43.270;27.942;2023-01-30T16:28:48;97859.19;;;4.20;69.58
32456;BME280;18912;43.270;27.942;2023-01-30T16:31:16;97853.22;;;4.02;70.37